sensor_id;sensor_type;location;lat;lon;timestamp;pressure;altitude;pressure_sealevel;temperature;humidity
55466;BME280;41329;41.594;23.810;2023-09-19T00:02:18;95625.88;;;17.12;59.28
55466;BME280;41329;41.594;23.810;2023-09-19T00:04:43;95641.06;;;17.18;59.51
55466;BME280;41329;41.594;23.810;2023-09-19T00:07:09;95643.47;;;17.13;59.22
55466;BME280;41329;41.594;23.810;2023-09-19T00:09:35;95640.28;;;17.14;58.91
55466;BME280;41329;41.594;23.810;2023-09-19T00:12:05;95644.28;;;17.06;58.70
55466;BME280;41329;41.594;23.810;2023-09-19T00:14:31;95647.09;;;17.06;58.73
55466;BME280;41329;41.594;23.810;2023-09-19T00:16:59;95648.34;;;16.95;59.10
55466;BME280;41329;41.594;23.810;2023-09-19T00:19:26;95648.72;;;16.90;59.54
55466;BME280;41329;41.594;23.810;2023-09-19T00:21:51;95632.41;;;16.81;59.46
55466;BME280;41329;41.594;23.810;2023-09-19T00:24:18;95629.22;;;16.79;59.20
55466;BME280;41329;41.594;23.810;2023-09-19T00:26:43;95637.97;;;16.85;59.71
55466;BME280;41329;41.594;23.810;2023-09-19T00:29:11;95634.41;;;16.77;59.52
55466;BME280;41329;41.594;23.810;2023-09-19T00:31:38;95638.41;;;16.76;59.74
55466;BME280;41329;41.594;23.810;2023-09-19T00:34:03;95638.44;;;16.66;60.63
55466;BME280;41329;41.594;23.810;2023-09-19T00:36:35;95631.31;;;16.47;60.61
55466;BME280;41329;41.594;23.810;2023-09-19T00:39:01;95648.03;;;16.54;60.53
55466;BME280;41329;41.594;23.810;2023-09-19T00:41:31;95642.06;;;16.52;60.79
55466;BME280;41329;41.594;23.810;2023-09-19T00:43:57;95628.91;;;16.35;61.31
55466;BME280;41329;41.594;23.810;2023-09-19T00:46:22;95644.06;;;16.48;61.76
55466;BME280;41329;41.594;23.810;2023-09-19T00:48:47;95635.28;;;16.50;61.93
55466;BME280;41329;41.594;23.810;2023-09-19T00:51:15;95642.88;;;16.53;61.45
55466;BME280;41329;41.594;23.810;2023-09-19T00:53:44;95633.69;;;16.52;61.41
55466;BME280;41329;41.594;23.810;2023-09-19T00:56:11;95627.31;;;16.45;60.99
55466;BME280;41329;41.594;23.810;2023-09-19T00:58:37;95627.72;;;16.47;60.76
55466;BME280;41329;41.594;23.810;2023-09-19T01:01:04;95628.94;;;16.42;60.55
55466;BME280;41329;41.594;23.810;2023-09-19T01:03:33;95610.16;;;16.25;60.28
55466;BME280;41329;41.594;23.810;2023-09-19T01:05:59;95630.91;;;16.24;60.45
55466;BME280;41329;41.594;23.810;2023-09-19T01:08:26;95637.69;;;16.16;60.75
55466;BME280;41329;41.594;23.810;2023-09-19T01:11:17;95635.28;;;16.11;61.12
55466;BME280;41329;41.594;23.810;2023-09-19T01:13:55;95617.75;;;16.07;61.21
55466;BME280;41329;41.594;23.810;2023-09-19T01:16:37;95611.41;;;15.86;61.22
55466;BME280;41329;41.594;23.810;2023-09-19T01:21:47;95627.72;;;15.73;62.03
55466;BME280;41329;41.594;23.810;2023-09-19T01:29:46;95618.97;;;15.71;63.43
55466;BME280;41329;41.594;23.810;2023-09-19T01:32:18;95607.81;;;15.61;63.37
55466;BME280;41329;41.594;23.810;2023-09-19T01:34:56;95620.56;;;15.69;63.36
55466;BME280;41329;41.594;23.810;2023-09-19T01:37:31;95620.53;;;15.65;63.26
55466;BME280;41329;41.594;23.810;2023-09-19T01:40:00;95617.34;;;15.67;63.37
55466;BME280;41329;41.594;23.810;2023-09-19T01:45:12;95610.16;;;15.62;63.16
55466;BME280;41329;41.594;23.810;2023-09-19T01:47:52;95605.81;;;15.65;63.30
55466;BME280;41329;41.594;23.810;2023-09-19T01:51:02;95609.78;;;15.74;63.77
55466;BME280;41329;41.594;23.810;2023-09-19T01:56:34;95606.22;;;15.74;63.60
55466;BME280;41329;41.594;23.810;2023-09-19T01:59:10;95601.41;;;15.74;63.26
55466;BME280;41329;41.594;23.810;2023-09-19T02:01:39;95609.38;;;15.76;63.60
55466;BME280;41329;41.594;23.810;2023-09-19T02:04:07;95588.28;;;15.64;63.07
55466;BME280;41329;41.594;23.810;2023-09-19T02:06:32;95579.09;;;15.60;62.80
55466;BME280;41329;41.594;23.810;2023-09-19T02:08:59;95597.44;;;15.68;62.88
55466;BME280;41329;41.594;23.810;2023-09-19T02:11:25;95600.63;;;15.63;62.29
55466;BME280;41329;41.594;23.810;2023-09-19T02:13:50;95593.44;;;15.55;62.81
55466;BME280;41329;41.594;23.810;2023-09-19T02:16:19;95605.38;;;15.56;63.06
55466;BME280;41329;41.594;23.810;2023-09-19T02:18:47;95608.59;;;15.58;63.64
55466;BME280;41329;41.594;23.810;2023-09-19T02:21:14;95582.28;;;15.48;63.97
55466;BME280;41329;41.594;23.810;2023-09-19T02:23:40;95611.75;;;15.60;63.79
55466;BME280;41329;41.594;23.810;2023-09-19T02:26:06;95610.97;;;15.59;64.55
55466;BME280;41329;41.594;23.810;2023-09-19T02:28:32;95587.84;;;15.52;64.81
55466;BME280;41329;41.594;23.810;2023-09-19T02:30:58;95600.63;;;15.63;64.39
55466;BME280;41329;41.594;23.810;2023-09-19T02:33:24;95593.84;;;15.57;64.58
55466;BME280;41329;41.594;23.810;2023-09-19T02:35:49;95601.81;;;15.55;64.58
55466;BME280;41329;41.594;23.810;2023-09-19T02:38:15;95601.00;;;15.55;64.36
55466;BME280;41329;41.594;23.810;2023-09-19T02:40:43;95595.00;;;15.49;64.51
55466;BME280;41329;41.594;23.810;2023-09-19T02:43:09;95556.72;;;15.32;64.36
55466;BME280;41329;41.594;23.810;2023-09-19T03:48:35;95587.72;;;14.17;68.70
55466;BME280;41329;41.594;23.810;2023-09-19T03:51:01;95588.13;;;14.19;68.74
55466;BME280;41329;41.594;23.810;2023-09-19T03:53:27;95587.72;;;14.17;68.14
55466;BME280;41329;41.594;23.810;2023-09-19T03:55:52;95585.69;;;14.07;67.55
55466;BME280;41329;41.594;23.810;2023-09-19T03:58:18;95602.88;;;14.23;67.08
55466;BME280;41329;41.594;23.810;2023-09-19T04:00:44;95602.47;;;14.21;66.58
55466;BME280;41329;41.594;23.810;2023-09-19T04:03:09;95605.63;;;14.20;66.44
55466;BME280;41329;41.594;23.810;2023-09-19T04:05:43;95616.00;;;14.23;66.82
55466;BME280;41329;41.594;23.810;2023-09-19T04:08:09;95610.38;;;14.19;67.17
55466;BME280;41329;41.594;23.810;2023-09-19T04:10:34;95596.84;;;14.14;66.71
55466;BME280;41329;41.594;23.810;2023-09-19T04:13:00;95620.38;;;14.24;66.39
55466;BME280;41329;41.594;23.810;2023-09-19T04:15:26;95618.41;;;14.24;66.55
55466;BME280;41329;41.594;23.810;2023-09-19T04:17:52;95621.97;;;14.25;66.31
55466;BME280;41329;41.594;23.810;2023-09-19T04:20:18;95627.81;;;14.13;66.43
55466;BME280;41329;41.594;23.810;2023-09-19T04:22:50;95614.66;;;14.06;66.20
55466;BME280;41329;41.594;23.810;2023-09-19T04:25:16;95633.44;;;14.16;65.79
55466;BME280;41329;41.594;23.810;2023-09-19T04:27:41;95623.44;;;14.08;65.83
55466;BME280;41329;41.594;23.810;2023-09-19T04:30:07;95626.22;;;14.08;66.45
55466;BME280;41329;41.594;23.810;2023-09-19T04:32:38;95628.63;;;14.13;66.77
55466;BME280;41329;41.594;23.810;2023-09-19T04:35:09;95632.22;;;14.14;67.61
55466;BME280;41329;41.594;23.810;2023-09-19T04:37:37;95629.47;;;14.17;68.28
55466;BME280;41329;41.594;23.810;2023-09-19T04:40:04;95631.09;;;14.22;68.05
55466;BME280;41329;41.594;23.810;2023-09-19T04:42:31;95637.47;;;14.22;67.53
55466;BME280;41329;41.594;23.810;2023-09-19T04:44:56;95643.00;;;14.19;67.26
55466;BME280;41329;41.594;23.810;2023-09-19T04:47:22;95639.81;;;14.20;66.59
55466;BME280;41329;41.594;23.810;2023-09-19T04:49:47;95643.78;;;14.19;67.07
55466;BME280;41329;41.594;23.810;2023-09-19T04:52:13;95641.00;;;14.19;67.54
55466;BME280;41329;41.594;23.810;2023-09-19T04:54:40;95620.97;;;14.00;68.10
55466;BME280;41329;41.594;23.810;2023-09-19T04:57:06;95648.22;;;14.24;67.94
55466;BME280;41329;41.594;23.810;2023-09-19T04:59:32;95644.28;;;14.28;67.88
55466;BME280;41329;41.594;23.810;2023-09-19T05:01:58;95631.91;;;14.22;68.64
55466;BME280;41329;41.594;23.810;2023-09-19T05:04:23;95648.31;;;14.38;68.87
55466;BME280;41329;41.594;23.810;2023-09-19T05:06:49;95627.59;;;14.35;68.80
55466;BME280;41329;41.594;23.810;2023-09-19T05:09:14;95642.41;;;14.50;68.68
55466;BME280;41329;41.594;23.810;2023-09-19T05:11:40;95618.53;;;14.49;69.20
55466;BME280;41329;41.594;23.810;2023-09-19T05:14:06;95623.38;;;14.59;69.64
55466;BME280;41329;41.594;23.810;2023-09-19T05:16:31;95625.81;;;14.67;69.91
55466;BME280;41329;41.594;23.810;2023-09-19T05:18:57;95638.59;;;14.82;69.72
55466;BME280;41329;41.594;23.810;2023-09-19T05:21:25;95641.41;;;14.89;69.87
55466;BME280;41329;41.594;23.810;2023-09-19T05:23:54;95645.41;;;14.95;69.10
55466;BME280;41329;41.594;23.810;2023-09-19T05:26:19;95619.56;;;14.91;68.96
55466;BME280;41329;41.594;23.810;2023-09-19T05:28:44;95634.72;;;15.04;68.57
55466;BME280;41329;41.594;23.810;2023-09-19T05:31:10;95620.34;;;14.95;68.25
55466;BME280;41329;41.594;23.810;2023-09-19T05:33:35;95641.50;;;15.10;68.44
55466;BME280;41329;41.594;23.810;2023-09-19T05:36:00;95642.31;;;15.14;68.52
55466;BME280;41329;41.594;23.810;2023-09-19T05:38:26;95652.28;;;15.19;68.60
55466;BME280;41329;41.594;23.810;2023-09-19T05:40:52;95637.13;;;15.09;68.96
55466;BME280;41329;41.594;23.810;2023-09-19T05:43:18;95650.16;;;14.88;69.97
55466;BME280;41329;41.594;23.810;2023-09-19T05:45:44;95643.84;;;14.98;70.09
55466;BME280;41329;41.594;23.810;2023-09-19T05:48:14;95627.09;;;14.94;69.92
55466;BME280;41329;41.594;23.810;2023-09-19T05:50:41;95644.28;;;15.10;70.16
55466;BME280;41329;41.594;23.810;2023-09-19T05:53:07;95647.50;;;15.16;70.69
55466;BME280;41329;41.594;23.810;2023-09-19T05:55:33;95649.47;;;15.15;71.00
55466;BME280;41329;41.594;23.810;2023-09-19T05:57:58;95651.47;;;15.18;70.57
55466;BME280;41329;41.594;23.810;2023-09-19T06:00:25;95637.50;;;15.04;70.52
55466;BME280;41329;41.594;23.810;2023-09-19T06:02:57;95641.47;;;15.03;72.07
55466;BME280;41329;41.594;23.810;2023-09-19T06:05:23;95638.34;;;15.22;71.75
55466;BME280;41329;41.594;23.810;2023-09-19T06:07:49;95641.16;;;15.19;71.60
55466;BME280;41329;41.594;23.810;2023-09-19T06:10:15;95642.72;;;15.20;71.63
55466;BME280;41329;41.594;23.810;2023-09-19T06:12:42;95636.38;;;15.30;71.14
55466;BME280;41329;41.594;23.810;2023-09-19T06:15:12;95634.41;;;15.30;71.77
55466;BME280;41329;41.594;23.810;2023-09-19T06:17:51;95615.72;;;15.38;71.10
55466;BME280;41329;41.594;23.810;2023-09-19T06:20:20;95627.72;;;15.59;70.77
55466;BME280;41329;41.594;23.810;2023-09-19T06:22:47;95626.13;;;15.62;70.54
55466;BME280;41329;41.594;23.810;2023-09-19T06:25:14;95630.94;;;15.75;70.51
55466;BME280;41329;41.594;23.810;2023-09-19T06:27:46;95637.72;;;15.88;71.03
55466;BME280;41329;41.594;23.810;2023-09-19T06:30:12;95631.34;;;15.95;70.24
55466;BME280;41329;41.594;23.810;2023-09-19T06:32:39;95623.75;;;15.92;70.51
55466;BME280;41329;41.594;23.810;2023-09-19T06:35:05;95619.75;;;15.89;70.22
55466;BME280;41329;41.594;23.810;2023-09-19T06:37:33;95638.06;;;16.15;70.37
55466;BME280;41329;41.594;23.810;2023-09-19T06:40:13;95636.47;;;16.31;70.51
55466;BME280;41329;41.594;23.810;2023-09-19T06:42:51;95618.53;;;16.50;69.48
55466;BME280;41329;41.594;23.810;2023-09-19T06:45:18;95634.47;;;16.49;67.72
55466;BME280;41329;41.594;23.810;2023-09-19T06:47:47;95633.66;;;16.63;66.90
55466;BME280;41329;41.594;23.810;2023-09-19T06:50:20;95624.47;;;16.69;67.39
55466;BME280;41329;41.594;23.810;2023-09-19T06:52:48;95629.13;;;17.00;67.83
55466;BME280;41329;41.594;23.810;2023-09-19T06:55:19;95615.88;;;17.22;67.16
55466;BME280;41329;41.594;23.810;2023-09-19T06:57:48;95622.56;;;17.35;66.48
55466;BME280;41329;41.594;23.810;2023-09-19T07:00:14;95616.13;;;17.52;65.84
55466;BME280;41329;41.594;23.810;2023-09-19T07:02:59;95614.03;;;17.66;65.04
55466;BME280;41329;41.594;23.810;2023-09-19T07:05:28;95602.00;;;17.66;64.17
55466;BME280;41329;41.594;23.810;2023-09-19T07:07:54;95607.97;;;17.75;63.37
55466;BME280;41329;41.594;23.810;2023-09-19T07:10:29;95580.84;;;17.68;62.57
55466;BME280;41329;41.594;23.810;2023-09-19T07:13:02;95591.56;;;17.77;61.84
55466;BME280;41329;41.594;23.810;2023-09-19T07:15:28;95607.13;;;17.82;61.40
55466;BME280;41329;41.594;23.810;2023-09-19T07:17:56;95598.66;;;17.88;61.04
55466;BME280;41329;41.594;23.810;2023-09-19T07:20:23;95609.81;;;17.96;60.23
55466;BME280;41329;41.594;23.810;2023-09-19T07:22:51;95614.84;;;18.15;59.67
55466;BME280;41329;41.594;23.810;2023-09-19T07:25:17;95612.38;;;18.20;59.06
55466;BME280;41329;41.594;23.810;2023-09-19T07:27:43;95620.00;;;18.20;57.52
55466;BME280;41329;41.594;23.810;2023-09-19T07:30:09;95596.53;;;18.07;58.10
55466;BME280;41329;41.594;23.810;2023-09-19T07:32:37;95607.06;;;18.36;58.75
55466;BME280;41329;41.594;23.810;2023-09-19T07:35:04;95609.59;;;18.61;59.43
55466;BME280;41329;41.594;23.810;2023-09-19T07:37:31;95598.16;;;18.82;58.44
55466;BME280;41329;41.594;23.810;2023-09-19T07:40:07;95594.38;;;18.99;57.19
55466;BME280;41329;41.594;23.810;2023-09-19T07:42:34;95575.06;;;19.04;57.71
55466;BME280;41329;41.594;23.810;2023-09-19T07:45:06;95583.88;;;19.36;57.37
55466;BME280;41329;41.594;23.810;2023-09-19T07:47:33;95582.03;;;19.53;56.59
55466;BME280;41329;41.594;23.810;2023-09-19T07:49:59;95560.06;;;19.48;55.36
55466;BME280;41329;41.594;23.810;2023-09-19T07:52:27;95591.38;;;19.73;54.06
55466;BME280;41329;41.594;23.810;2023-09-19T07:54:53;95589.78;;;19.72;54.45
55466;BME280;41329;41.594;23.810;2023-09-19T07:57:18;95584.50;;;19.77;53.72
55466;BME280;41329;41.594;23.810;2023-09-19T07:59:45;95563.69;;;19.71;52.58
55466;BME280;41329;41.594;23.810;2023-09-19T08:02:10;95562.13;;;19.70;54.31
55466;BME280;41329;41.594;23.810;2023-09-19T08:04:44;95559.53;;;19.83;53.26
55466;BME280;41329;41.594;23.810;2023-09-19T08:07:14;95567.22;;;20.02;54.20
55466;BME280;41329;41.594;23.810;2023-09-19T08:09:39;95557.38;;;20.17;52.94
55466;BME280;41329;41.594;23.810;2023-09-19T08:12:06;95567.19;;;20.28;52.45
55466;BME280;41329;41.594;23.810;2023-09-19T08:14:33;95562.31;;;20.32;52.99
55466;BME280;41329;41.594;23.810;2023-09-19T08:16:59;95558.38;;;20.26;52.65
55466;BME280;41329;41.594;23.810;2023-09-19T08:19:25;95562.03;;;20.46;51.70
55466;BME280;41329;41.594;23.810;2023-09-19T08:21:57;95555.50;;;20.72;52.62
55466;BME280;41329;41.594;23.810;2023-09-19T08:24:30;95560.50;;;20.84;50.60
55466;BME280;41329;41.594;23.810;2023-09-19T08:26:56;95561.97;;;20.92;48.98
55466;BME280;41329;41.594;23.810;2023-09-19T08:29:23;95554.13;;;21.03;51.08
55466;BME280;41329;41.594;23.810;2023-09-19T08:31:58;95551.06;;;21.33;52.22
55466;BME280;41329;41.594;23.810;2023-09-19T08:34:24;95548.19;;;21.53;50.93
55466;BME280;41329;41.594;23.810;2023-09-19T08:36:53;95551.38;;;21.55;49.06
55466;BME280;41329;41.594;23.810;2023-09-19T08:39:23;95543.13;;;21.64;51.03
55466;BME280;41329;41.594;23.810;2023-09-19T08:41:49;95540.16;;;21.71;49.34
55466;BME280;41329;41.594;23.810;2023-09-19T08:44:15;95542.56;;;21.88;49.09
55466;BME280;41329;41.594;23.810;2023-09-19T08:46:43;95536.03;;;21.75;49.13
55466;BME280;41329;41.594;23.810;2023-09-19T08:49:37;95531.19;;;22.08;50.62
55466;BME280;41329;41.594;23.810;2023-09-19T08:52:36;95535.59;;;22.25;49.02
55466;BME280;41329;41.594;23.810;2023-09-19T08:55:07;95528.47;;;22.20;47.64
55466;BME280;41329;41.594;23.810;2023-09-19T08:57:36;95521.66;;;22.34;48.97
55466;BME280;41329;41.594;23.810;2023-09-19T09:00:07;95526.56;;;22.62;47.93
55466;BME280;41329;41.594;23.810;2023-09-19T09:02:38;95512.97;;;22.73;47.76
55466;BME280;41329;41.594;23.810;2023-09-19T09:05:11;95524.78;;;22.97;46.58
55466;BME280;41329;41.594;23.810;2023-09-19T09:07:40;95510.56;;;23.00;46.28
55466;BME280;41329;41.594;23.810;2023-09-19T09:10:06;95515.88;;;22.98;44.99
55466;BME280;41329;41.594;23.810;2023-09-19T09:12:34;95498.94;;;22.98;45.04
55466;BME280;41329;41.594;23.810;2023-09-19T09:15:02;95499.41;;;23.09;46.36
55466;BME280;41329;41.594;23.810;2023-09-19T09:17:29;95507.03;;;23.25;46.50
55466;BME280;41329;41.594;23.810;2023-09-19T09:19:55;95499.84;;;23.36;45.99
55466;BME280;41329;41.594;23.810;2023-09-19T09:22:20;95488.75;;;23.54;45.30
55466;BME280;41329;41.594;23.810;2023-09-19T09:24:52;95481.66;;;23.62;44.99
55466;BME280;41329;41.594;23.810;2023-09-19T09:27:23;95485.59;;;23.77;44.69
55466;BME280;41329;41.594;23.810;2023-09-19T09:29:50;95474.50;;;23.83;44.52
55466;BME280;41329;41.594;23.810;2023-09-19T09:32:17;95481.97;;;24.02;44.12
55466;BME280;41329;41.594;23.810;2023-09-19T09:34:44;95480.13;;;24.20;44.30
55466;BME280;41329;41.594;23.810;2023-09-19T09:37:16;95462.06;;;24.18;43.32
55466;BME280;41329;41.594;23.810;2023-09-19T09:39:52;95474.56;;;24.29;43.10
55466;BME280;41329;41.594;23.810;2023-09-19T09:42:37;95461.16;;;24.42;42.94
55466;BME280;41329;41.594;23.810;2023-09-19T09:45:25;95450.03;;;24.60;43.58
55466;BME280;41329;41.594;23.810;2023-09-19T09:48:03;95448.66;;;24.65;41.69
55466;BME280;41329;41.594;23.810;2023-09-19T09:50:31;95463.72;;;24.62;41.17
55466;BME280;41329;41.594;23.810;2023-09-19T09:53:24;95469.47;;;24.92;41.14
55466;BME280;41329;41.594;23.810;2023-09-19T09:56:02;95456.63;;;25.00;39.98
55466;BME280;41329;41.594;23.810;2023-09-19T09:58:34;95445.63;;;25.02;38.88
55466;BME280;41329;41.594;23.810;2023-09-19T10:01:01;95462.84;;;25.17;38.97
55466;BME280;41329;41.594;23.810;2023-09-19T10:03:39;95458.38;;;25.28;39.65
55466;BME280;41329;41.594;23.810;2023-09-19T10:06:09;95443.94;;;25.35;38.93
55466;BME280;41329;41.594;23.810;2023-09-19T10:09:07;95452.78;;;25.37;38.19
55466;BME280;41329;41.594;23.810;2023-09-19T10:11:40;95461.00;;;25.44;38.19
55466;BME280;41329;41.594;23.810;2023-09-19T10:14:09;95459.16;;;25.50;39.40
55466;BME280;41329;41.594;23.810;2023-09-19T10:16:36;95453.16;;;25.57;38.98
55466;BME280;41329;41.594;23.810;2023-09-19T10:19:05;95453.06;;;25.61;40.55
55466;BME280;41329;41.594;23.810;2023-09-19T10:21:33;95439.56;;;25.83;41.98
55466;BME280;41329;41.594;23.810;2023-09-19T10:24:03;95431.94;;;26.01;41.32
55466;BME280;41329;41.594;23.810;2023-09-19T10:26:30;95421.44;;;26.20;38.75
55466;BME280;41329;41.594;23.810;2023-09-19T10:28:57;95430.69;;;26.11;38.02
55466;BME280;41329;41.594;23.810;2023-09-19T10:31:26;95425.66;;;26.06;37.12
55466;BME280;41329;41.594;23.810;2023-09-19T10:33:53;95439.19;;;26.11;37.96
55466;BME280;41329;41.594;23.810;2023-09-19T10:36:24;95423.63;;;26.16;37.54
55466;BME280;41329;41.594;23.810;2023-09-19T10:38:54;95431.97;;;26.10;36.68
55466;BME280;41329;41.594;23.810;2023-09-19T10:41:22;95420.13;;;26.03;37.24
55466;BME280;41329;41.594;23.810;2023-09-19T10:43:48;95422.66;;;26.10;37.55
55466;BME280;41329;41.594;23.810;2023-09-19T10:46:14;95398.41;;;26.27;37.47
55466;BME280;41329;41.594;23.810;2023-09-19T10:48:40;95415.31;;;26.57;37.76
55466;BME280;41329;41.594;23.810;2023-09-19T10:51:21;95407.09;;;26.77;37.03
55466;BME280;41329;41.594;23.810;2023-09-19T10:54:01;95405.31;;;26.98;37.18
55466;BME280;41329;41.594;23.810;2023-09-19T10:56:36;95399.47;;;27.19;37.54
55466;BME280;41329;41.594;23.810;2023-09-19T10:59:14;95393.16;;;27.15;34.96
55466;BME280;41329;41.594;23.810;2023-09-19T11:04:28;95388.56;;;27.18;36.57
55466;BME280;41329;41.594;23.810;2023-09-19T11:07:04;95386.13;;;27.43;37.30
55466;BME280;41329;41.594;23.810;2023-09-19T11:15:00;95369.25;;;27.82;34.39
55466;BME280;41329;41.594;23.810;2023-09-19T11:17:39;95370.03;;;27.73;33.84
55466;BME280;41329;41.594;23.810;2023-09-19T11:30:40;95339.34;;;27.86;34.66
55466;BME280;41329;41.594;23.810;2023-09-19T11:33:33;95358.75;;;27.88;35.56
55466;BME280;41329;41.594;23.810;2023-09-19T11:46:52;95337.28;;;27.87;35.60
55466;BME280;41329;41.594;23.810;2023-09-19T11:49:23;95313.78;;;27.77;35.17
55466;BME280;41329;41.594;23.810;2023-09-19T11:51:51;95325.44;;;27.88;36.29
55466;BME280;41329;41.594;23.810;2023-09-19T11:54:18;95317.47;;;28.16;36.77
55466;BME280;41329;41.594;23.810;2023-09-19T11:56:50;95306.28;;;28.12;34.39
55466;BME280;41329;41.594;23.810;2023-09-19T11:59:22;95309.22;;;28.18;36.16
55466;BME280;41329;41.594;23.810;2023-09-19T12:01:52;95311.34;;;28.08;34.93
55466;BME280;41329;41.594;23.810;2023-09-19T12:07:07;95303.47;;;28.27;34.83
55466;BME280;41329;41.594;23.810;2023-09-19T12:09:39;95309.94;;;28.51;35.09
55466;BME280;41329;41.594;23.810;2023-09-19T12:12:25;95304.31;;;28.42;34.80
55466;BME280;41329;41.594;23.810;2023-09-19T12:14:54;95295.53;;;28.31;34.02
55466;BME280;41329;41.594;23.810;2023-09-19T12:17:22;95295.03;;;28.32;34.82
55466;BME280;41329;41.594;23.810;2023-09-19T12:19:53;95292.75;;;28.22;35.12
55466;BME280;41329;41.594;23.810;2023-09-19T12:22:19;95295.25;;;28.29;35.60
55466;BME280;41329;41.594;23.810;2023-09-19T12:24:46;95290.16;;;28.33;36.01
55466;BME280;41329;41.594;23.810;2023-09-19T12:27:12;95282.97;;;28.37;35.48
55466;BME280;41329;41.594;23.810;2023-09-19T12:29:46;95285.34;;;28.39;35.37
55466;BME280;41329;41.594;23.810;2023-09-19T12:32:12;95285.69;;;28.41;35.53
55466;BME280;41329;41.594;23.810;2023-09-19T12:34:38;95274.69;;;28.48;35.05
55466;BME280;41329;41.594;23.810;2023-09-19T12:37:16;95281.66;;;28.62;35.60
55466;BME280;41329;41.594;23.810;2023-09-19T12:39:49;95277.34;;;28.81;34.44
55466;BME280;41329;41.594;23.810;2023-09-19T12:42:17;95271.06;;;29.06;35.92
55466;BME280;41329;41.594;23.810;2023-09-19T12:44:45;95256.13;;;29.11;33.67
55466;BME280;41329;41.594;23.810;2023-09-19T12:47:17;95269.69;;;29.16;32.75
55466;BME280;41329;41.594;23.810;2023-09-19T12:52:43;95264.56;;;29.54;31.69
55466;BME280;41329;41.594;23.810;2023-09-19T12:55:31;95272.50;;;29.65;33.54
55466;BME280;41329;41.594;23.810;2023-09-19T12:58:14;95258.50;;;29.81;31.97
55466;BME280;41329;41.594;23.810;2023-09-19T13:00:45;95260.56;;;29.81;31.48
55466;BME280;41329;41.594;23.810;2023-09-19T13:03:15;95261.41;;;29.67;31.62
55466;BME280;41329;41.594;23.810;2023-09-19T13:06:02;95241.56;;;29.78;31.75
55466;BME280;41329;41.594;23.810;2023-09-19T13:08:36;95240.66;;;29.86;31.36
55466;BME280;41329;41.594;23.810;2023-09-19T13:11:16;95231.09;;;29.35;30.89
55466;BME280;41329;41.594;23.810;2023-09-19T13:16:19;95245.59;;;29.66;31.75
55466;BME280;41329;41.594;23.810;2023-09-19T13:18:52;95228.97;;;29.64;31.84
55466;BME280;41329;41.594;23.810;2023-09-19T13:21:31;95230.75;;;29.62;31.97
55466;BME280;41329;41.594;23.810;2023-09-19T13:24:21;95236.81;;;29.89;32.06
55466;BME280;41329;41.594;23.810;2023-09-19T13:26:48;95219.88;;;30.06;32.31
55466;BME280;41329;41.594;23.810;2023-09-19T13:29:14;95211.09;;;30.09;32.02
55466;BME280;41329;41.594;23.810;2023-09-19T13:31:46;95229.28;;;30.32;30.72
55466;BME280;41329;41.594;23.810;2023-09-19T13:34:11;95228.63;;;30.42;32.06
55466;BME280;41329;41.594;23.810;2023-09-19T13:36:37;95220.06;;;30.68;32.27
55466;BME280;41329;41.594;23.810;2023-09-19T13:39:03;95221.28;;;30.87;31.18
55466;BME280;41329;41.594;23.810;2023-09-19T13:41:30;95208.84;;;30.90;30.41
55466;BME280;41329;41.594;23.810;2023-09-19T13:43:56;95198.75;;;30.94;30.67
55466;BME280;41329;41.594;23.810;2023-09-19T13:46:22;95199.31;;;30.98;30.69
55466;BME280;41329;41.594;23.810;2023-09-19T13:48:51;95209.44;;;30.99;30.81
55466;BME280;41329;41.594;23.810;2023-09-19T13:51:20;95204.88;;;30.82;31.17
55466;BME280;41329;41.594;23.810;2023-09-19T13:53:48;95207.75;;;30.82;31.94
55466;BME280;41329;41.594;23.810;2023-09-19T13:56:13;95202.31;;;30.84;31.21
55466;BME280;41329;41.594;23.810;2023-09-19T13:58:39;95194.09;;;30.97;32.12
55466;BME280;41329;41.594;23.810;2023-09-19T14:01:07;95191.84;;;31.12;32.12
55466;BME280;41329;41.594;23.810;2023-09-19T14:03:37;95196.69;;;31.26;31.27
55466;BME280;41329;41.594;23.810;2023-09-19T14:06:03;95195.25;;;31.16;31.73
55466;BME280;41329;41.594;23.810;2023-09-19T14:08:29;95190.34;;;31.16;31.85
55466;BME280;41329;41.594;23.810;2023-09-19T14:10:54;95181.38;;;30.98;30.99
55466;BME280;41329;41.594;23.810;2023-09-19T14:13:20;95181.81;;;30.91;31.42
55466;BME280;41329;41.594;23.810;2023-09-19T14:15:46;95170.09;;;30.83;31.90
55466;BME280;41329;41.594;23.810;2023-09-19T14:18:11;95196.91;;;30.91;31.78
55466;BME280;41329;41.594;23.810;2023-09-19T14:20:40;95192.44;;;30.85;32.05
55466;BME280;41329;41.594;23.810;2023-09-19T14:23:06;95193.50;;;30.87;32.93
55466;BME280;41329;41.594;23.810;2023-09-19T14:25:34;95188.22;;;30.75;31.89
55466;BME280;41329;41.594;23.810;2023-09-19T14:27:59;95191.31;;;30.51;31.91
55466;BME280;41329;41.594;23.810;2023-09-19T14:30:25;95203.72;;;30.43;32.39
55466;BME280;41329;41.594;23.810;2023-09-19T14:32:50;95194.19;;;30.26;33.20
55466;BME280;41329;41.594;23.810;2023-09-19T14:35:16;95200.91;;;30.23;34.17
55466;BME280;41329;41.594;23.810;2023-09-19T14:37:41;95199.03;;;30.20;34.41
55466;BME280;41329;41.594;23.810;2023-09-19T14:40:07;95197.88;;;30.12;34.17
55466;BME280;41329;41.594;23.810;2023-09-19T14:42:38;95198.91;;;30.09;34.78
55466;BME280;41329;41.594;23.810;2023-09-19T14:45:05;95183.94;;;29.94;34.88
55466;BME280;41329;41.594;23.810;2023-09-19T14:47:31;95190.56;;;30.05;34.86
55466;BME280;41329;41.594;23.810;2023-09-19T14:50:03;95198.06;;;30.03;34.62
55466;BME280;41329;41.594;23.810;2023-09-19T14:52:32;95196.25;;;30.05;35.36
55466;BME280;41329;41.594;23.810;2023-09-19T14:54:57;95205.84;;;30.02;34.70
55466;BME280;41329;41.594;23.810;2023-09-19T14:57:23;95195.81;;;29.87;35.28